Terminal Aerodrome Forecast
Issued by NWS

Home | Current Version | Previous Version | Text Only | Print | Product List | Glossary On
Versions: 1 2 3 4 5 6 7 8 9 10 11 12 13 14 15
000
FTUS42 KMLB 112300
TAFSUA
TAF
KSUA 112338Z 1200/1224 11008KT P6SM SCT035 SCT250
     FM120300 11004KT P6SM FEW020 SCT250
     FM121300 10006KT P6SM VCSH SCT020 SCT250
     FM121700 09009KT P6SM VCTS SCT035CB BKN250=

USA.gov is the U.S. government's official web portal to all federal, state and local government web resources and services.